Impacts METAR Board
IDs:

KPSX - Palacios Muni, TX, US

Updated at: 1300 UTC 14 Dec 2019
Potential Impact None Slight Moderate High
Time 14/01Z 14/02Z 14/03Z 14/04Z 14/05Z 14/06Z 14/07Z 14/08Z 14/09Z 14/10Z 14/11Z 14/12Z 14/13Z
Temp62 63 62 62 62 54 51 51 51 52 48 48 50
Dewpt55 58 58 58 57 51 49 49 48 49 45 46 46
Altim29.83 29.84 29.85 29.86 29.86 29.86 29.86 29.86 29.86 29.86 29.84 29.86 29.87
VIS10 10 10 10 10 1.75 0.5 4 10 2.5 5 8 1.5
CIG-- -- -- -- -- -- 3 -- -- -- 2 -- --
CoverCLRCLRCLRCLRCLRCLROVXCLRCLRCLRBKNCLRCLR
FltCatVFRVFRVFRVFRVFRIFRLIFRMVFRVFRIFRLIFRVFRIFR
WX----------BRFGBR--BRBR--BR
WDir180190200210220010020070140120
WSpd5 5 5 5 5 0 3 0 3 0 3 3 4
WGst-- -- -- -- -- -- -- -- -- -- -- -- --
Raw hourly METARs
KPSX 140053Z AUTO 18005KT 10SM CLR 17/13 A2983 RMK AO2 SLP102 T01670128
KPSX 140153Z AUTO 19005KT 10SM CLR 17/14 A2984 RMK AO2 SLP103 T01720144
KPSX 140253Z AUTO 20005KT 10SM CLR 17/14 A2985 RMK AO2 SLP106 T01670144 51011
KPSX 140353Z AUTO 21005KT 10SM CLR 17/14 A2986 RMK AO2 SLP110 T01670144
KPSX 140453Z AUTO 22005KT 10SM CLR 17/14 A2986 RMK AO2 SLP112 T01670139
KPSX 140600Z AUTO 00000KT 1 3/4SM BR CLR 12/11 A2986 RMK AO2 VIS 3/4V5 T01220106
KPSX 140702Z AUTO 01003KT 1/2SM FG VV003 11/09 A2986 RMK AO2 T01060094
KPSX 140759Z AUTO 00000KT 4SM BR CLR 11/09 A2986 RMK AO2 T01060094
KPSX 140853Z AUTO 02003KT 10SM CLR 11/09 A2986 RMK AO2 SLP109 T01060089 57003
KPSX 141000Z AUTO 00000KT 2 1/2SM BR CLR 11/09 A2986 RMK AO2 VIS 1V5 T01110094
KPSX 141101Z AUTO 07003KT 5SM BR BKN002 09/07 A2984 RMK AO2 T00890072
KPSX 141204Z AUTO 14003KT 8SM CLR 09/08 A2986 RMK AO2 T00890078
KPSX 141302Z AUTO 12004KT 1 1/2SM BR CLR 10/08 A2987 RMK AO2 T01000078



Page loaded:  13:32 UTC  |   05:32 AM Pacific  |   06:32 AM Mountain  |   07:32 AM Central  |   08:32 AM Eastern

 

ADVISORIES

FORECASTS

FORECASTS

OBSERVATIONS

USER TOOLS

ABOUT US